sensor_id;sensor_type;location;lat;lon;timestamp;P1;durP1;ratioP1;P2;durP2;ratioP2
57309;SDS011;43153;50.984;18.204;2022-07-23T00:00:00;19.40;;;9.60;;
57309;SDS011;43153;50.984;18.204;2022-07-23T00:02:45;22.30;;;10.30;;
57309;SDS011;43153;50.984;18.204;2022-07-23T00:05:30;25.20;;;10.40;;
57309;SDS011;43153;50.984;18.204;2022-07-23T00:08:14;17.20;;;9.60;;
57309;SDS011;43153;50.984;18.204;2022-07-23T00:10:59;19.70;;;9.90;;
57309;SDS011;43153;50.984;18.204;2022-07-23T00:13:44;17.40;;;9.70;;
57309;SDS011;43153;50.984;18.204;2022-07-23T00:16:28;18.70;;;9.60;;
57309;SDS011;43153;50.984;18.204;2022-07-23T00:19:13;18.10;;;9.50;;
57309;SDS011;43153;50.984;18.204;2022-07-23T00:21:58;22.20;;;11.60;;
57309;SDS011;43153;50.984;18.204;2022-07-23T00:24:43;16.00;;;9.60;;
57309;SDS011;43153;50.984;18.204;2022-07-23T00:27:32;21.20;;;10.50;;
57309;SDS011;43153;50.984;18.204;2022-07-23T00:30:16;17.70;;;9.90;;
57309;SDS011;43153;50.984;18.204;2022-07-23T00:33:02;17.30;;;9.90;;
57309;SDS011;43153;50.984;18.204;2022-07-23T00:35:48;28.60;;;10.70;;
57309;SDS011;43153;50.984;18.204;2022-07-23T00:38:32;18.20;;;10.80;;
57309;SDS011;43153;50.984;18.204;2022-07-23T00:41:18;17.70;;;9.60;;
57309;SDS011;43153;50.984;18.204;2022-07-23T00:47:02;18.70;;;9.90;;
57309;SDS011;43153;50.984;18.204;2022-07-23T00:49:49;17.30;;;9.00;;
57309;SDS011;43153;50.984;18.204;2022-07-23T00:52:35;17.50;;;9.10;;
57309;SDS011;43153;50.984;18.204;2022-07-23T00:55:20;18.20;;;10.20;;
57309;SDS011;43153;50.984;18.204;2022-07-23T00:58:06;17.50;;;10.30;;
57309;SDS011;43153;50.984;18.204;2022-07-23T01:00:52;26.50;;;11.80;;
57309;SDS011;43153;50.984;18.204;2022-07-23T01:03:36;21.70;;;10.20;;
57309;SDS011;43153;50.984;18.204;2022-07-23T01:06:22;25.30;;;12.00;;
57309;SDS011;43153;50.984;18.204;2022-07-23T01:09:08;19.70;;;10.80;;
57309;SDS011;43153;50.984;18.204;2022-07-23T01:11:54;21.30;;;11.00;;
57309;SDS011;43153;50.984;18.204;2022-07-23T01:14:39;21.00;;;11.50;;
57309;SDS011;43153;50.984;18.204;2022-07-23T01:17:25;23.10;;;11.70;;
57309;SDS011;43153;50.984;18.204;2022-07-23T01:20:11;19.40;;;11.00;;
57309;SDS011;43153;50.984;18.204;2022-07-23T01:22:56;20.00;;;11.10;;
57309;SDS011;43153;50.984;18.204;2022-07-23T01:25:47;19.90;;;11.30;;
57309;SDS011;43153;50.984;18.204;2022-07-23T01:28:32;20.90;;;11.70;;
57309;SDS011;43153;50.984;18.204;2022-07-23T01:31:17;19.40;;;11.10;;
57309;SDS011;43153;50.984;18.204;2022-07-23T01:34:04;19.60;;;11.20;;
57309;SDS011;43153;50.984;18.204;2022-07-23T01:36:49;21.30;;;12.20;;
57309;SDS011;43153;50.984;18.204;2022-07-23T01:39:33;24.20;;;11.60;;
57309;SDS011;43153;50.984;18.204;2022-07-23T01:42:21;20.70;;;11.70;;
57309;SDS011;43153;50.984;18.204;2022-07-23T01:45:10;22.30;;;10.70;;
57309;SDS011;43153;50.984;18.204;2022-07-23T01:47:54;20.10;;;10.50;;
57309;SDS011;43153;50.984;18.204;2022-07-23T01:50:39;22.70;;;11.20;;
57309;SDS011;43153;50.984;18.204;2022-07-23T01:53:25;18.50;;;11.20;;
57309;SDS011;43153;50.984;18.204;2022-07-23T01:56:09;36.00;;;19.30;;
57309;SDS011;43153;50.984;18.204;2022-07-23T01:58:55;92.90;;;47.20;;
57309;SDS011;43153;50.984;18.204;2022-07-23T02:01:40;63.80;;;32.30;;
57309;SDS011;43153;50.984;18.204;2022-07-23T02:04:25;31.20;;;16.90;;
57309;SDS011;43153;50.984;18.204;2022-07-23T02:07:09;35.50;;;19.10;;
57309;SDS011;43153;50.984;18.204;2022-07-23T02:09:55;25.20;;;14.90;;
57309;SDS011;43153;50.984;18.204;2022-07-23T02:12:40;31.20;;;17.20;;
57309;SDS011;43153;50.984;18.204;2022-07-23T02:15:24;25.70;;;14.40;;
57309;SDS011;43153;50.984;18.204;2022-07-23T02:18:09;23.70;;;11.60;;
57309;SDS011;43153;50.984;18.204;2022-07-23T02:20:54;18.90;;;11.10;;
57309;SDS011;43153;50.984;18.204;2022-07-23T02:23:39;21.70;;;11.70;;
57309;SDS011;43153;50.984;18.204;2022-07-23T02:26:25;18.70;;;10.10;;
57309;SDS011;43153;50.984;18.204;2022-07-23T02:29:11;21.80;;;10.80;;
57309;SDS011;43153;50.984;18.204;2022-07-23T02:31:56;20.40;;;11.60;;
57309;SDS011;43153;50.984;18.204;2022-07-23T02:34:41;17.20;;;10.70;;
57309;SDS011;43153;50.984;18.204;2022-07-23T02:37:26;21.90;;;10.10;;
57309;SDS011;43153;50.984;18.204;2022-07-23T02:40:11;22.50;;;11.20;;
57309;SDS011;43153;50.984;18.204;2022-07-23T02:42:56;20.50;;;10.10;;
57309;SDS011;43153;50.984;18.204;2022-07-23T02:45:41;20.70;;;11.10;;
57309;SDS011;43153;50.984;18.204;2022-07-23T02:48:25;20.50;;;10.60;;
57309;SDS011;43153;50.984;18.204;2022-07-23T02:51:09;21.10;;;10.70;;
57309;SDS011;43153;50.984;18.204;2022-07-23T02:53:53;17.10;;;11.10;;
57309;SDS011;43153;50.984;18.204;2022-07-23T02:56:44;20.80;;;11.10;;
57309;SDS011;43153;50.984;18.204;2022-07-23T02:59:29;19.30;;;10.40;;
57309;SDS011;43153;50.984;18.204;2022-07-23T03:02:14;16.30;;;9.20;;
57309;SDS011;43153;50.984;18.204;2022-07-23T03:05:01;20.50;;;10.30;;
57309;SDS011;43153;50.984;18.204;2022-07-23T03:07:47;17.80;;;10.50;;
57309;SDS011;43153;50.984;18.204;2022-07-23T03:10:31;19.70;;;10.20;;
57309;SDS011;43153;50.984;18.204;2022-07-23T03:13:15;16.70;;;10.30;;
57309;SDS011;43153;50.984;18.204;2022-07-23T03:16:03;21.10;;;10.30;;
57309;SDS011;43153;50.984;18.204;2022-07-23T03:18:48;22.10;;;10.90;;
57309;SDS011;43153;50.984;18.204;2022-07-23T03:21:33;19.20;;;11.60;;
57309;SDS011;43153;50.984;18.204;2022-07-23T03:24:18;24.60;;;12.10;;
57309;SDS011;43153;50.984;18.204;2022-07-23T03:27:03;22.70;;;12.00;;
57309;SDS011;43153;50.984;18.204;2022-07-23T03:29:47;20.10;;;11.70;;
57309;SDS011;43153;50.984;18.204;2022-07-23T03:32:33;19.90;;;12.10;;
57309;SDS011;43153;50.984;18.204;2022-07-23T03:35:17;23.80;;;11.70;;
57309;SDS011;43153;50.984;18.204;2022-07-23T03:38:05;24.80;;;12.10;;
57309;SDS011;43153;50.984;18.204;2022-07-23T03:40:56;19.40;;;11.70;;
57309;SDS011;43153;50.984;18.204;2022-07-23T03:43:40;24.50;;;11.30;;
57309;SDS011;43153;50.984;18.204;2022-07-23T03:46:26;23.50;;;12.20;;
57309;SDS011;43153;50.984;18.204;2022-07-23T03:49:13;22.10;;;11.60;;
57309;SDS011;43153;50.984;18.204;2022-07-23T03:51:57;19.20;;;11.40;;
57309;SDS011;43153;50.984;18.204;2022-07-23T03:54:42;24.30;;;11.40;;
57309;SDS011;43153;50.984;18.204;2022-07-23T03:57:27;19.80;;;11.10;;
57309;SDS011;43153;50.984;18.204;2022-07-23T04:00:13;20.60;;;12.80;;
57309;SDS011;43153;50.984;18.204;2022-07-23T04:02:58;18.60;;;11.30;;
57309;SDS011;43153;50.984;18.204;2022-07-23T04:05:45;20.80;;;10.90;;
57309;SDS011;43153;50.984;18.204;2022-07-23T04:08:29;18.40;;;10.90;;
57309;SDS011;43153;50.984;18.204;2022-07-23T04:11:16;19.50;;;12.00;;
57309;SDS011;43153;50.984;18.204;2022-07-23T04:14:00;20.20;;;11.80;;
57309;SDS011;43153;50.984;18.204;2022-07-23T04:16:45;29.30;;;12.10;;
57309;SDS011;43153;50.984;18.204;2022-07-23T04:19:29;20.50;;;11.00;;
57309;SDS011;43153;50.984;18.204;2022-07-23T04:22:14;18.50;;;10.90;;
57309;SDS011;43153;50.984;18.204;2022-07-23T04:25:01;23.90;;;10.90;;
57309;SDS011;43153;50.984;18.204;2022-07-23T04:27:46;17.10;;;10.90;;
57309;SDS011;43153;50.984;18.204;2022-07-23T04:30:32;20.20;;;12.20;;
57309;SDS011;43153;50.984;18.204;2022-07-23T04:33:17;17.90;;;11.60;;
57309;SDS011;43153;50.984;18.204;2022-07-23T04:36:03;21.10;;;11.40;;
57309;SDS011;43153;50.984;18.204;2022-07-23T04:38:48;20.40;;;10.50;;
57309;SDS011;43153;50.984;18.204;2022-07-23T04:41:33;25.80;;;13.30;;
57309;SDS011;43153;50.984;18.204;2022-07-23T04:44:19;27.80;;;13.70;;
57309;SDS011;43153;50.984;18.204;2022-07-23T04:47:03;23.00;;;12.50;;
57309;SDS011;43153;50.984;18.204;2022-07-23T04:49:47;21.20;;;12.10;;
57309;SDS011;43153;50.984;18.204;2022-07-23T04:52:33;17.90;;;11.40;;
57309;SDS011;43153;50.984;18.204;2022-07-23T04:55:18;19.20;;;11.30;;
57309;SDS011;43153;50.984;18.204;2022-07-23T04:58:02;18.10;;;10.90;;
57309;SDS011;43153;50.984;18.204;2022-07-23T05:00:47;17.00;;;11.00;;
57309;SDS011;43153;50.984;18.204;2022-07-23T05:03:31;21.10;;;11.50;;
57309;SDS011;43153;50.984;18.204;2022-07-23T05:06:15;20.10;;;10.00;;
57309;SDS011;43153;50.984;18.204;2022-07-23T05:09:00;17.70;;;9.80;;
57309;SDS011;43153;50.984;18.204;2022-07-23T05:11:44;16.70;;;9.70;;
57309;SDS011;43153;50.984;18.204;2022-07-23T05:14:28;19.60;;;10.60;;
57309;SDS011;43153;50.984;18.204;2022-07-23T05:17:15;16.00;;;9.60;;
57309;SDS011;43153;50.984;18.204;2022-07-23T05:19:59;16.40;;;9.80;;
57309;SDS011;43153;50.984;18.204;2022-07-23T05:22:43;17.10;;;10.30;;
57309;SDS011;43153;50.984;18.204;2022-07-23T05:25:27;17.80;;;9.90;;
57309;SDS011;43153;50.984;18.204;2022-07-23T05:28:12;17.40;;;9.30;;
57309;SDS011;43153;50.984;18.204;2022-07-23T05:31:01;17.30;;;9.90;;
57309;SDS011;43153;50.984;18.204;2022-07-23T05:33:48;17.00;;;9.20;;
57309;SDS011;43153;50.984;18.204;2022-07-23T05:36:33;13.70;;;8.10;;
57309;SDS011;43153;50.984;18.204;2022-07-23T05:39:17;15.60;;;7.60;;
57309;SDS011;43153;50.984;18.204;2022-07-23T05:42:02;14.40;;;7.00;;
57309;SDS011;43153;50.984;18.204;2022-07-23T05:44:46;12.10;;;7.40;;
57309;SDS011;43153;50.984;18.204;2022-07-23T05:47:43;16.30;;;7.20;;
57309;SDS011;43153;50.984;18.204;2022-07-23T05:50:28;12.00;;;6.30;;
57309;SDS011;43153;50.984;18.204;2022-07-23T05:53:12;14.20;;;7.30;;
57309;SDS011;43153;50.984;18.204;2022-07-23T05:55:57;11.10;;;6.90;;
57309;SDS011;43153;50.984;18.204;2022-07-23T05:58:41;15.00;;;7.20;;
57309;SDS011;43153;50.984;18.204;2022-07-23T06:01:26;15.50;;;7.70;;
57309;SDS011;43153;50.984;18.204;2022-07-23T06:04:11;17.60;;;7.40;;
57309;SDS011;43153;50.984;18.204;2022-07-23T06:06:56;12.80;;;7.70;;
57309;SDS011;43153;50.984;18.204;2022-07-23T06:09:43;14.40;;;8.00;;
57309;SDS011;43153;50.984;18.204;2022-07-23T06:12:27;12.60;;;7.30;;
57309;SDS011;43153;50.984;18.204;2022-07-23T06:15:12;12.90;;;7.10;;
57309;SDS011;43153;50.984;18.204;2022-07-23T06:17:56;13.80;;;6.40;;
57309;SDS011;43153;50.984;18.204;2022-07-23T06:20:41;13.70;;;7.10;;
57309;SDS011;43153;50.984;18.204;2022-07-23T06:23:27;13.50;;;6.70;;
57309;SDS011;43153;50.984;18.204;2022-07-23T06:26:11;12.60;;;7.30;;
57309;SDS011;43153;50.984;18.204;2022-07-23T06:28:56;12.60;;;6.50;;
57309;SDS011;43153;50.984;18.204;2022-07-23T06:31:41;10.60;;;6.30;;
57309;SDS011;43153;50.984;18.204;2022-07-23T06:34:25;13.20;;;7.10;;
57309;SDS011;43153;50.984;18.204;2022-07-23T06:37:10;14.40;;;6.20;;
57309;SDS011;43153;50.984;18.204;2022-07-23T06:39:57;14.90;;;6.60;;
57309;SDS011;43153;50.984;18.204;2022-07-23T06:42:42;12.40;;;7.10;;
57309;SDS011;43153;50.984;18.204;2022-07-23T06:45:28;10.10;;;6.30;;
57309;SDS011;43153;50.984;18.204;2022-07-23T06:48:12;12.10;;;7.00;;
57309;SDS011;43153;50.984;18.204;2022-07-23T06:50:58;10.20;;;6.20;;
57309;SDS011;43153;50.984;18.204;2022-07-23T06:53:42;13.60;;;6.90;;
57309;SDS011;43153;50.984;18.204;2022-07-23T06:56:28;11.00;;;6.80;;
57309;SDS011;43153;50.984;18.204;2022-07-23T06:59:13;11.90;;;6.10;;
57309;SDS011;43153;50.984;18.204;2022-07-23T07:01:58;13.30;;;6.50;;
57309;SDS011;43153;50.984;18.204;2022-07-23T07:04:44;10.40;;;6.00;;
57309;SDS011;43153;50.984;18.204;2022-07-23T07:07:29;13.20;;;6.40;;
57309;SDS011;43153;50.984;18.204;2022-07-23T07:10:14;12.70;;;6.60;;
57309;SDS011;43153;50.984;18.204;2022-07-23T07:13:00;13.10;;;6.80;;
57309;SDS011;43153;50.984;18.204;2022-07-23T07:15:44;11.70;;;6.50;;
57309;SDS011;43153;50.984;18.204;2022-07-23T07:18:29;10.60;;;6.50;;
57309;SDS011;43153;50.984;18.204;2022-07-23T07:21:13;11.80;;;6.90;;
57309;SDS011;43153;50.984;18.204;2022-07-23T07:23:57;9.10;;;5.80;;
57309;SDS011;43153;50.984;18.204;2022-07-23T07:26:42;10.50;;;6.10;;
57309;SDS011;43153;50.984;18.204;2022-07-23T07:29:28;9.70;;;5.40;;
57309;SDS011;43153;50.984;18.204;2022-07-23T07:32:12;12.70;;;5.20;;
57309;SDS011;43153;50.984;18.204;2022-07-23T07:34:57;11.20;;;5.70;;
57309;SDS011;43153;50.984;18.204;2022-07-23T07:37:41;9.80;;;5.30;;
57309;SDS011;43153;50.984;18.204;2022-07-23T07:40:26;9.90;;;5.50;;
57309;SDS011;43153;50.984;18.204;2022-07-23T07:43:10;8.40;;;4.80;;
57309;SDS011;43153;50.984;18.204;2022-07-23T07:45:55;11.50;;;4.90;;
57309;SDS011;43153;50.984;18.204;2022-07-23T07:48:42;10.90;;;5.50;;
57309;SDS011;43153;50.984;18.204;2022-07-23T07:51:26;10.60;;;4.80;;
57309;SDS011;43153;50.984;18.204;2022-07-23T07:54:13;9.10;;;4.70;;
57309;SDS011;43153;50.984;18.204;2022-07-23T07:56:58;10.30;;;4.70;;
57309;SDS011;43153;50.984;18.204;2022-07-23T07:59:42;10.90;;;5.20;;
57309;SDS011;43153;50.984;18.204;2022-07-23T08:02:27;10.00;;;5.30;;
57309;SDS011;43153;50.984;18.204;2022-07-23T08:05:12;9.00;;;4.80;;
57309;SDS011;43153;50.984;18.204;2022-07-23T08:07:57;10.40;;;5.20;;
57309;SDS011;43153;50.984;18.204;2022-07-23T08:10:42;7.90;;;5.20;;
57309;SDS011;43153;50.984;18.204;2022-07-23T08:13:27;7.60;;;5.00;;
57309;SDS011;43153;50.984;18.204;2022-07-23T08:16:11;8.20;;;5.00;;
57309;SDS011;43153;50.984;18.204;2022-07-23T08:18:56;8.30;;;4.70;;
57309;SDS011;43153;50.984;18.204;2022-07-23T08:21:41;7.10;;;4.60;;
57309;SDS011;43153;50.984;18.204;2022-07-23T08:24:26;8.40;;;4.10;;
57309;SDS011;43153;50.984;18.204;2022-07-23T08:27:11;11.10;;;4.60;;
57309;SDS011;43153;50.984;18.204;2022-07-23T08:29:56;7.80;;;4.50;;
57309;SDS011;43153;50.984;18.204;2022-07-23T08:32:47;7.70;;;4.60;;
57309;SDS011;43153;50.984;18.204;2022-07-23T08:35:33;7.30;;;4.30;;
57309;SDS011;43153;50.984;18.204;2022-07-23T08:38:18;7.40;;;4.30;;
57309;SDS011;43153;50.984;18.204;2022-07-23T08:41:02;12.80;;;4.00;;
57309;SDS011;43153;50.984;18.204;2022-07-23T08:43:48;8.60;;;4.30;;
57309;SDS011;43153;50.984;18.204;2022-07-23T08:46:32;7.80;;;3.70;;
57309;SDS011;43153;50.984;18.204;2022-07-23T08:49:17;8.40;;;3.70;;
57309;SDS011;43153;50.984;18.204;2022-07-23T08:52:01;11.40;;;4.90;;
57309;SDS011;43153;50.984;18.204;2022-07-23T08:54:46;8.90;;;4.00;;
57309;SDS011;43153;50.984;18.204;2022-07-23T08:57:30;7.00;;;3.80;;
57309;SDS011;43153;50.984;18.204;2022-07-23T09:00:15;5.80;;;2.90;;
57309;SDS011;43153;50.984;18.204;2022-07-23T09:02:59;6.80;;;3.80;;
57309;SDS011;43153;50.984;18.204;2022-07-23T09:05:43;6.70;;;3.70;;
57309;SDS011;43153;50.984;18.204;2022-07-23T09:08:35;6.60;;;4.00;;
57309;SDS011;43153;50.984;18.204;2022-07-23T09:11:20;6.30;;;3.40;;
57309;SDS011;43153;50.984;18.204;2022-07-23T09:14:05;8.50;;;3.40;;
57309;SDS011;43153;50.984;18.204;2022-07-23T09:16:50;7.50;;;3.50;;
57309;SDS011;43153;50.984;18.204;2022-07-23T09:19:34;7.90;;;4.00;;
57309;SDS011;43153;50.984;18.204;2022-07-23T09:22:24;7.30;;;4.10;;
57309;SDS011;43153;50.984;18.204;2022-07-23T09:27:55;6.50;;;3.80;;
57309;SDS011;43153;50.984;18.204;2022-07-23T09:30:41;10.70;;;4.40;;
57309;SDS011;43153;50.984;18.204;2022-07-23T09:33:31;8.80;;;4.60;;
57309;SDS011;43153;50.984;18.204;2022-07-23T09:36:15;8.00;;;4.20;;
57309;SDS011;43153;50.984;18.204;2022-07-23T09:38:59;7.90;;;4.10;;
57309;SDS011;43153;50.984;18.204;2022-07-23T09:41:45;15.20;;;4.90;;
57309;SDS011;43153;50.984;18.204;2022-07-23T09:44:31;9.50;;;4.10;;
57309;SDS011;43153;50.984;18.204;2022-07-23T09:47:27;8.20;;;3.90;;
57309;SDS011;43153;50.984;18.204;2022-07-23T09:50:12;9.70;;;4.50;;
57309;SDS011;43153;50.984;18.204;2022-07-23T09:52:58;5.90;;;3.90;;
57309;SDS011;43153;50.984;18.204;2022-07-23T09:55:42;6.30;;;4.50;;
57309;SDS011;43153;50.984;18.204;2022-07-23T09:58:27;9.50;;;4.90;;
57309;SDS011;43153;50.984;18.204;2022-07-23T10:01:12;6.60;;;4.40;;
57309;SDS011;43153;50.984;18.204;2022-07-23T10:03:58;7.30;;;4.10;;
57309;SDS011;43153;50.984;18.204;2022-07-23T10:06:42;8.70;;;4.50;;
57309;SDS011;43153;50.984;18.204;2022-07-23T10:09:31;7.50;;;3.90;;
57309;SDS011;43153;50.984;18.204;2022-07-23T10:12:16;9.60;;;4.00;;
57309;SDS011;43153;50.984;18.204;2022-07-23T10:15:05;14.80;;;4.80;;
57309;SDS011;43153;50.984;18.204;2022-07-23T10:17:52;9.50;;;4.30;;
57309;SDS011;43153;50.984;18.204;2022-07-23T10:20:37;11.60;;;4.00;;
57309;SDS011;43153;50.984;18.204;2022-07-23T10:23:31;7.60;;;4.10;;
57309;SDS011;43153;50.984;18.204;2022-07-23T10:26:27;7.40;;;3.90;;
57309;SDS011;43153;50.984;18.204;2022-07-23T10:43:37;7.70;;;3.80;;
57309;SDS011;43153;50.984;18.204;2022-07-23T10:46:22;6.30;;;3.60;;
57309;SDS011;43153;50.984;18.204;2022-07-23T10:49:29;10.50;;;4.10;;
57309;SDS011;43153;50.984;18.204;2022-07-23T10:57:49;8.40;;;4.20;;
57309;SDS011;43153;50.984;18.204;2022-07-23T11:00:34;8.30;;;3.80;;
57309;SDS011;43153;50.984;18.204;2022-07-23T11:03:29;10.60;;;3.70;;
57309;SDS011;43153;50.984;18.204;2022-07-23T11:06:17;10.80;;;4.40;;
57309;SDS011;43153;50.984;18.204;2022-07-23T11:15:12;11.30;;;4.30;;
57309;SDS011;43153;50.984;18.204;2022-07-23T11:17:58;7.80;;;4.40;;
57309;SDS011;43153;50.984;18.204;2022-07-23T11:20:43;12.00;;;4.30;;
57309;SDS011;43153;50.984;18.204;2022-07-23T11:23:57;11.70;;;5.00;;
57309;SDS011;43153;50.984;18.204;2022-07-23T11:32:24;9.60;;;4.80;;
57309;SDS011;43153;50.984;18.204;2022-07-23T11:35:21;12.30;;;5.10;;
57309;SDS011;43153;50.984;18.204;2022-07-23T11:38:07;11.30;;;4.50;;
57309;SDS011;43153;50.984;18.204;2022-07-23T11:40:52;12.40;;;5.10;;
57309;SDS011;43153;50.984;18.204;2022-07-23T11:43:38;8.40;;;4.30;;
57309;SDS011;43153;50.984;18.204;2022-07-23T11:46:22;11.90;;;4.40;;
57309;SDS011;43153;50.984;18.204;2022-07-23T11:49:06;8.50;;;4.40;;
57309;SDS011;43153;50.984;18.204;2022-07-23T11:52:08;8.90;;;5.00;;
57309;SDS011;43153;50.984;18.204;2022-07-23T11:55:00;12.50;;;5.30;;
57309;SDS011;43153;50.984;18.204;2022-07-23T11:57:45;9.60;;;4.90;;
57309;SDS011;43153;50.984;18.204;2022-07-23T12:00:30;11.30;;;5.10;;
57309;SDS011;43153;50.984;18.204;2022-07-23T12:03:15;13.60;;;4.60;;
57309;SDS011;43153;50.984;18.204;2022-07-23T12:05:59;12.60;;;4.80;;
57309;SDS011;43153;50.984;18.204;2022-07-23T12:08:44;10.40;;;4.70;;
57309;SDS011;43153;50.984;18.204;2022-07-23T12:11:28;10.50;;;5.70;;
57309;SDS011;43153;50.984;18.204;2022-07-23T12:14:13;27.60;;;6.00;;
57309;SDS011;43153;50.984;18.204;2022-07-23T12:17:09;22.40;;;6.10;;
57309;SDS011;43153;50.984;18.204;2022-07-23T12:19:54;12.50;;;5.40;;
57309;SDS011;43153;50.984;18.204;2022-07-23T12:22:43;10.60;;;5.00;;
57309;SDS011;43153;50.984;18.204;2022-07-23T12:25:29;11.00;;;6.90;;
57309;SDS011;43153;50.984;18.204;2022-07-23T12:28:18;11.10;;;7.10;;
57309;SDS011;43153;50.984;18.204;2022-07-23T12:31:03;11.60;;;5.80;;
57309;SDS011;43153;50.984;18.204;2022-07-23T12:33:48;10.90;;;6.20;;
57309;SDS011;43153;50.984;18.204;2022-07-23T12:36:38;12.60;;;7.10;;
57309;SDS011;43153;50.984;18.204;2022-07-23T12:39:30;12.40;;;7.10;;
57309;SDS011;43153;50.984;18.204;2022-07-23T12:42:14;13.50;;;6.60;;
57309;SDS011;43153;50.984;18.204;2022-07-23T12:45:07;15.90;;;7.30;;
57309;SDS011;43153;50.984;18.204;2022-07-23T12:47:55;11.90;;;6.40;;
57309;SDS011;43153;50.984;18.204;2022-07-23T12:53:26;12.40;;;6.70;;
57309;SDS011;43153;50.984;18.204;2022-07-23T12:56:32;15.70;;;7.90;;
57309;SDS011;43153;50.984;18.204;2022-07-23T12:59:15;12.80;;;8.20;;
57309;SDS011;43153;50.984;18.204;2022-07-23T13:02:00;15.30;;;7.40;;
57309;SDS011;43153;50.984;18.204;2022-07-23T13:04:45;17.50;;;8.00;;
57309;SDS011;43153;50.984;18.204;2022-07-23T13:07:29;13.80;;;8.50;;
57309;SDS011;43153;50.984;18.204;2022-07-23T13:10:13;16.10;;;8.70;;
57309;SDS011;43153;50.984;18.204;2022-07-23T13:12:57;18.80;;;10.10;;
57309;SDS011;43153;50.984;18.204;2022-07-23T13:15:42;18.90;;;10.50;;
57309;SDS011;43153;50.984;18.204;2022-07-23T13:18:27;18.20;;;11.10;;
57309;SDS011;43153;50.984;18.204;2022-07-23T13:21:12;19.80;;;10.90;;
57309;SDS011;43153;50.984;18.204;2022-07-23T13:23:56;15.80;;;9.90;;
57309;SDS011;43153;50.984;18.204;2022-07-23T13:26:41;14.60;;;9.10;;
57309;SDS011;43153;50.984;18.204;2022-07-23T13:29:25;16.20;;;8.20;;
57309;SDS011;43153;50.984;18.204;2022-07-23T13:32:11;17.00;;;8.70;;
57309;SDS011;43153;50.984;18.204;2022-07-23T13:34:55;15.80;;;8.90;;
57309;SDS011;43153;50.984;18.204;2022-07-23T13:37:39;15.90;;;8.60;;
57309;SDS011;43153;50.984;18.204;2022-07-23T13:40:25;13.70;;;8.10;;
57309;SDS011;43153;50.984;18.204;2022-07-23T13:43:10;11.90;;;7.50;;
57309;SDS011;43153;50.984;18.204;2022-07-23T13:45:55;15.90;;;8.20;;
57309;SDS011;43153;50.984;18.204;2022-07-23T13:48:39;19.60;;;8.10;;
57309;SDS011;43153;50.984;18.204;2022-07-23T13:51:23;17.80;;;7.20;;
57309;SDS011;43153;50.984;18.204;2022-07-23T13:54:08;15.70;;;8.80;;
57309;SDS011;43153;50.984;18.204;2022-07-23T13:56:52;15.00;;;8.50;;
57309;SDS011;43153;50.984;18.204;2022-07-23T13:59:37;16.60;;;8.60;;
57309;SDS011;43153;50.984;18.204;2022-07-23T14:02:21;17.40;;;8.50;;
57309;SDS011;43153;50.984;18.204;2022-07-23T14:05:06;20.00;;;9.20;;
57309;SDS011;43153;50.984;18.204;2022-07-23T14:07:51;17.10;;;9.40;;
57309;SDS011;43153;50.984;18.204;2022-07-23T14:10:36;14.90;;;9.80;;
57309;SDS011;43153;50.984;18.204;2022-07-23T14:13:20;15.80;;;9.40;;
57309;SDS011;43153;50.984;18.204;2022-07-23T14:16:04;12.70;;;8.50;;
57309;SDS011;43153;50.984;18.204;2022-07-23T14:18:49;14.30;;;8.90;;
57309;SDS011;43153;50.984;18.204;2022-07-23T14:21:34;13.70;;;7.70;;
57309;SDS011;43153;50.984;18.204;2022-07-23T14:24:18;17.60;;;9.10;;
57309;SDS011;43153;50.984;18.204;2022-07-23T14:27:02;16.90;;;8.50;;
57309;SDS011;43153;50.984;18.204;2022-07-23T14:29:47;14.10;;;7.90;;
57309;SDS011;43153;50.984;18.204;2022-07-23T14:32:32;12.00;;;6.70;;
57309;SDS011;43153;50.984;18.204;2022-07-23T14:35:17;15.30;;;6.90;;
57309;SDS011;43153;50.984;18.204;2022-07-23T14:38:03;16.30;;;6.70;;
57309;SDS011;43153;50.984;18.204;2022-07-23T14:40:48;13.40;;;6.50;;
57309;SDS011;43153;50.984;18.204;2022-07-23T14:43:33;12.50;;;6.50;;
57309;SDS011;43153;50.984;18.204;2022-07-23T14:46:17;10.00;;;6.30;;
57309;SDS011;43153;50.984;18.204;2022-07-23T14:49:02;10.50;;;6.30;;
57309;SDS011;43153;50.984;18.204;2022-07-23T14:51:46;10.90;;;7.10;;
57309;SDS011;43153;50.984;18.204;2022-07-23T14:54:32;12.70;;;6.30;;
57309;SDS011;43153;50.984;18.204;2022-07-23T14:57:17;10.30;;;6.40;;
57309;SDS011;43153;50.984;18.204;2022-07-23T15:00:02;21.90;;;8.00;;
57309;SDS011;43153;50.984;18.204;2022-07-23T15:02:46;12.10;;;7.10;;
57309;SDS011;43153;50.984;18.204;2022-07-23T15:05:30;10.60;;;7.20;;
57309;SDS011;43153;50.984;18.204;2022-07-23T15:08:15;14.50;;;6.50;;
57309;SDS011;43153;50.984;18.204;2022-07-23T15:11:00;14.90;;;8.10;;
57309;SDS011;43153;50.984;18.204;2022-07-23T15:13:44;12.40;;;7.10;;
57309;SDS011;43153;50.984;18.204;2022-07-23T15:16:28;13.40;;;7.40;;
57309;SDS011;43153;50.984;18.204;2022-07-23T15:19:12;12.50;;;6.60;;
57309;SDS011;43153;50.984;18.204;2022-07-23T15:21:57;11.10;;;6.10;;
57309;SDS011;43153;50.984;18.204;2022-07-23T15:24:43;11.60;;;7.10;;
57309;SDS011;43153;50.984;18.204;2022-07-23T15:27:27;12.70;;;7.40;;
57309;SDS011;43153;50.984;18.204;2022-07-23T15:30:12;14.10;;;7.90;;
57309;SDS011;43153;50.984;18.204;2022-07-23T15:32:56;14.70;;;7.60;;
57309;SDS011;43153;50.984;18.204;2022-07-23T15:35:41;12.10;;;7.70;;
57309;SDS011;43153;50.984;18.204;2022-07-23T15:38:26;11.30;;;7.40;;
57309;SDS011;43153;50.984;18.204;2022-07-23T15:41:13;14.60;;;7.70;;
57309;SDS011;43153;50.984;18.204;2022-07-23T15:43:58;15.70;;;8.00;;
57309;SDS011;43153;50.984;18.204;2022-07-23T15:46:43;12.30;;;7.30;;
57309;SDS011;43153;50.984;18.204;2022-07-23T15:49:27;12.50;;;7.60;;
57309;SDS011;43153;50.984;18.204;2022-07-23T15:52:11;13.40;;;8.30;;
57309;SDS011;43153;50.984;18.204;2022-07-23T15:54:55;14.80;;;8.10;;
57309;SDS011;43153;50.984;18.204;2022-07-23T15:57:40;12.90;;;7.30;;
57309;SDS011;43153;50.984;18.204;2022-07-23T16:00:24;14.00;;;7.30;;
57309;SDS011;43153;50.984;18.204;2022-07-23T16:03:09;14.30;;;8.20;;
57309;SDS011;43153;50.984;18.204;2022-07-23T16:05:54;15.00;;;8.00;;
57309;SDS011;43153;50.984;18.204;2022-07-23T16:08:38;14.50;;;8.70;;
57309;SDS011;43153;50.984;18.204;2022-07-23T16:11:22;16.70;;;9.30;;
57309;SDS011;43153;50.984;18.204;2022-07-23T16:14:07;14.40;;;9.00;;
57309;SDS011;43153;50.984;18.204;2022-07-23T16:16:52;14.30;;;8.70;;
57309;SDS011;43153;50.984;18.204;2022-07-23T16:19:37;13.70;;;8.80;;
57309;SDS011;43153;50.984;18.204;2022-07-23T16:22:21;16.30;;;9.00;;
57309;SDS011;43153;50.984;18.204;2022-07-23T16:25:07;17.10;;;9.60;;
57309;SDS011;43153;50.984;18.204;2022-07-23T16:27:51;16.80;;;9.00;;
57309;SDS011;43153;50.984;18.204;2022-07-23T16:30:36;14.20;;;9.10;;
57309;SDS011;43153;50.984;18.204;2022-07-23T16:33:22;15.70;;;10.50;;
57309;SDS011;43153;50.984;18.204;2022-07-23T16:36:07;16.20;;;10.50;;
57309;SDS011;43153;50.984;18.204;2022-07-23T16:38:52;17.70;;;10.70;;
57309;SDS011;43153;50.984;18.204;2022-07-23T16:41:36;16.90;;;11.00;;
57309;SDS011;43153;50.984;18.204;2022-07-23T16:44:20;14.70;;;9.80;;
57309;SDS011;43153;50.984;18.204;2022-07-23T16:47:06;16.20;;;10.80;;